Time;durP1;ratioP1;P1;durP2;ratioP2;P2;SDS_P1;SDS_P2;PMS_P1;PMS_P2;Temp;Humidity;BMP_temperature;BMP_pressure;BME280_temperature;BME280_humidity;BME280_pressure;Samples;Min_cycle;Max_cycle;Signal;HPM_P1;HPM_P2
2021/11/29 00:01:14;;;;;;;8.27;4.78;;;2.70;83.20;;;;;;5072117;28;20063;-72
2021/11/29 00:03:40;;;;;;;6.85;4.10;;;2.60;83.20;;;;;;5090434;28;20454;-72
2021/11/29 00:06:06;;;;;;;4.88;3.75;;;2.60;83.30;;;;;;5080488;28;20028;-71
2021/11/29 00:08:32;;;;;;;9.18;3.65;;;2.60;83.50;;;;;;5077360;28;20038;-72
2021/11/29 00:10:57;;;;;;;8.65;3.50;;;2.70;83.60;;;;;;5050011;28;20041;-71
2021/11/29 00:13:27;;;;;;;6.82;3.60;;;2.70;83.70;;;;;;5047498;28;20155;-73
2021/11/29 00:15:52;;;;;;;8.13;3.95;;;2.60;83.70;;;;;;5082870;28;20023;-73
2021/11/29 00:18:18;;;;;;;6.70;3.90;;;2.70;83.80;;;;;;5071779;28;20032;-70
2021/11/29 00:20:44;;;;;;;7.35;3.67;;;2.70;83.90;;;;;;5085972;28;20437;-71
2021/11/29 00:23:14;;;;;;;6.95;3.60;;;2.70;83.80;;;;;;5071313;28;20036;-73
2021/11/29 00:25:41;;;;;;;6.80;3.45;;;2.70;83.90;;;;;;5089688;28;20047;-70
2021/11/29 00:28:08;;;;;;;10.15;4.95;;;2.60;83.80;;;;;;5090288;28;20039;-72
2021/11/29 00:30:35;;;;;;;7.93;3.47;;;2.70;84.00;;;;;;5087407;28;20423;-73
2021/11/29 00:33:01;;;;;;;8.63;3.10;;;2.70;84.10;;;;;;5085757;28;20036;-70
2021/11/29 00:35:27;;;;;;;7.10;3.03;;;2.70;84.20;;;;;;5071774;28;20097;-73
2021/11/29 00:37:52;;;;;;;6.43;2.60;;;2.80;84.40;;;;;;5071609;28;20081;-73
2021/11/29 00:40:18;;;;;;;5.97;2.90;;;2.70;84.40;;;;;;5089771;28;20106;-73
2021/11/29 00:42:44;;;;;;;4.07;2.30;;;2.80;84.50;;;;;;5090097;28;20020;-74
2021/11/29 00:45:10;;;;;;;5.93;2.63;;;2.80;84.50;;;;;;5090257;28;20111;-73
2021/11/29 00:47:37;;;;;;;6.13;2.50;;;2.80;84.40;;;;;;5072112;28;20064;-75
2021/11/29 00:50:04;;;;;;;4.55;2.50;;;2.80;84.40;;;;;;5071732;28;20064;-74
2021/11/29 00:52:30;;;;;;;5.50;2.78;;;2.80;84.40;;;;;;5072051;28;20386;-75
2021/11/29 00:54:56;;;;;;;8.60;2.40;;;2.80;84.40;;;;;;5089223;28;20024;-75
2021/11/29 00:57:21;;;;;;;4.00;1.98;;;2.80;84.90;;;;;;5088803;28;20469;-75
2021/11/29 00:59:48;;;;;;;5.13;2.10;;;2.80;84.30;;;;;;5089135;28;20028;-74
2021/11/29 01:02:15;;;;;;;5.72;2.28;;;2.80;84.30;;;;;;5089160;28;20024;-73
2021/11/29 01:04:41;;;;;;;4.97;2.15;;;2.80;84.30;;;;;;5054514;28;20042;-73
2021/11/29 01:07:07;;;;;;;4.03;2.20;;;2.80;84.30;;;;;;5089152;28;20482;-74
2021/11/29 01:09:33;;;;;;;4.40;1.88;;;2.80;84.20;;;;;;5071266;28;20108;-73
2021/11/29 01:11:59;;;;;;;3.50;1.92;;;2.80;84.20;;;;;;5089604;28;20207;-74
2021/11/29 01:14:25;;;;;;;2.50;1.50;;;2.80;84.20;;;;;;5089726;28;20046;-74
2021/11/29 01:16:50;;;;;;;3.90;1.85;;;2.70;84.20;;;;;;5071825;28;20021;-75
2021/11/29 01:19:16;;;;;;;7.70;1.90;;;2.70;84.20;;;;;;5071615;28;20025;-75
2021/11/29 01:21:42;;;;;;;2.55;1.58;;;2.70;84.00;;;;;;5086393;28;20165;-75
2021/11/29 01:24:08;;;;;;;3.83;1.80;;;2.70;84.10;;;;;;5110273;28;20027;-75
2021/11/29 01:26:33;;;;;;;3.50;1.75;;;2.70;84.10;;;;;;5090587;28;20080;-75
2021/11/29 01:28:59;;;;;;;5.35;1.75;;;2.70;83.90;;;;;;5089419;28;20169;-74
2021/11/29 01:31:25;;;;;;;3.78;1.85;;;2.70;83.80;;;;;;5071714;28;20490;-74
2021/11/29 01:33:50;;;;;;;3.85;1.55;;;2.60;83.50;;;;;;5089552;28;20047;-74
2021/11/29 01:36:16;;;;;;;5.50;1.80;;;2.60;83.30;;;;;;5071854;28;20039;-75
2021/11/29 01:38:42;;;;;;;5.72;1.80;;;2.60;83.20;;;;;;5070969;28;20036;-75
2021/11/29 01:41:08;;;;;;;3.72;1.80;;;2.50;83.00;;;;;;5088945;28;20378;-74
2021/11/29 01:43:33;;;;;;;4.55;1.60;;;2.60;83.00;;;;;;5089774;28;20036;-74
2021/11/29 01:45:59;;;;;;;2.65;1.23;;;2.50;82.80;;;;;;5087363;28;20540;-74
2021/11/29 01:48:26;;;;;;;4.45;1.50;;;2.50;83.10;;;;;;5071805;28;20032;-74
2021/11/29 01:50:56;;;;;;;3.63;1.30;;;2.50;83.50;;;;;;5088718;28;20123;-73
2021/11/29 01:53:24;;;;;;;2.55;1.10;;;2.50;83.70;;;;;;5089406;28;20043;-75
2021/11/29 01:55:51;;;;;;;4.53;0.68;;;2.50;83.80;;;;;;5088904;28;20078;-75
2021/11/29 01:58:17;;;;;;;3.28;1.20;;;2.50;84.00;;;;;;5087893;28;20135;-75
2021/11/29 02:00:46;;;;;;;2.25;0.95;;;2.50;84.30;;;;;;5087617;28;20120;-74
2021/11/29 02:03:13;;;;;;;3.78;0.82;;;2.50;84.50;;;;;;5070511;28;20106;-73
2021/11/29 02:05:39;;;;;;;3.80;0.98;;;2.60;84.70;;;;;;5088844;28;20481;-73
2021/11/29 02:08:06;;;;;;;2.20;0.80;;;2.60;85.10;;;;;;5070975;28;20111;-75
2021/11/29 02:10:33;;;;;;;1.48;0.75;;;2.60;85.20;;;;;;5088802;28;20036;-75
2021/11/29 02:12:59;;;;;;;2.78;0.80;;;2.60;85.20;;;;;;5088943;28;20020;-75
2021/11/29 02:15:25;;;;;;;1.65;0.73;;;2.60;85.20;;;;;;5088914;28;20059;-75
2021/11/29 02:17:50;;;;;;;2.13;0.80;;;2.60;85.40;;;;;;5089382;28;20112;-75
2021/11/29 02:20:18;;;;;;;2.67;0.77;;;2.70;85.60;;;;;;5091023;28;20032;-75
2021/11/29 02:22:44;;;;;;;2.63;0.80;;;2.70;85.60;;;;;;5092129;28;20031;-75
2021/11/29 02:25:16;;;;;;;4.65;1.00;;;2.70;85.50;;;;;;5092290;28;20451;-75
2021/11/29 02:27:43;;;;;;;2.80;0.90;;;2.70;85.50;;;;;;5074698;28;20368;-75
2021/11/29 02:30:11;;;;;;;3.35;0.80;;;2.70;85.50;;;;;;5091998;28;20068;-73
2021/11/29 02:32:36;;;;;;;3.72;1.00;;;2.70;85.50;;;;;;5093049;28;20395;-75
2021/11/29 02:35:03;;;;;;;3.75;0.80;;;2.70;85.60;;;;;;5092187;28;20036;-74
2021/11/29 02:37:28;;;;;;;1.77;0.98;;;2.70;85.50;;;;;;5092807;28;20383;-73
2021/11/29 02:39:54;;;;;;;3.70;0.80;;;2.70;85.60;;;;;;5056391;28;20054;-73
2021/11/29 02:42:20;;;;;;;2.88;1.00;;;2.70;85.60;;;;;;5084245;28;20032;-73
2021/11/29 02:44:46;;;;;;;5.65;2.03;;;2.70;85.60;;;;;;5074020;28;20039;-73
2021/11/29 02:47:11;;;;;;;3.00;0.85;;;2.80;85.70;;;;;;5073705;28;20036;-73
2021/11/29 02:49:37;;;;;;;1.15;0.70;;;2.70;85.60;;;;;;5091158;28;20043;-75
2021/11/29 02:52:10;;;;;;;4.05;0.95;;;2.70;85.60;;;;;;5073993;28;20475;-75
2021/11/29 02:54:43;;;;;;;2.92;0.93;;;2.70;85.60;;;;;;5092326;28;20032;-75
2021/11/29 02:57:12;;;;;;;3.47;0.82;;;2.70;85.80;;;;;;5091749;28;20782;-73
2021/11/29 02:59:40;;;;;;;1.63;0.80;;;2.70;85.50;;;;;;5090897;28;20096;-73
2021/11/29 03:02:12;;;;;;;1.48;0.60;;;2.70;85.50;;;;;;5091976;28;20052;-73
2021/11/29 03:04:39;;;;;;;2.95;1.08;;;2.70;85.50;;;;;;5091586;28;20104;-73
2021/11/29 03:07:06;;;;;;;4.50;0.95;;;2.70;85.50;;;;;;5057058;28;20131;-73
2021/11/29 03:09:33;;;;;;;0.80;0.63;;;2.70;85.60;;;;;;5073587;28;20035;-75
2021/11/29 03:11:59;;;;;;;3.92;0.70;;;2.70;85.60;;;;;;5091583;28;20032;-75
2021/11/29 03:14:25;;;;;;;4.05;0.90;;;2.70;85.50;;;;;;5073538;28;20044;-73
2021/11/29 03:16:53;;;;;;;0.93;0.70;;;2.70;85.50;;;;;;5090163;28;20059;-73
2021/11/29 03:19:20;;;;;;;1.95;0.73;;;2.70;85.50;;;;;;5072721;28;20115;-73
2021/11/29 03:21:45;;;;;;;2.80;0.60;;;2.70;85.40;;;;;;5073403;28;20029;-73
2021/11/29 03:24:11;;;;;;;5.95;1.10;;;2.70;85.40;;;;;;5091598;28;20047;-73
2021/11/29 03:26:39;;;;;;;3.53;0.85;;;2.70;85.20;;;;;;5055508;28;20082;-73
2021/11/29 03:29:09;;;;;;;3.35;0.75;;;2.70;85.20;;;;;;5072261;28;20047;-73
2021/11/29 03:31:36;;;;;;;1.48;0.70;;;2.60;85.40;;;;;;5091283;28;20076;-73
2021/11/29 03:34:04;;;;;;;3.40;0.77;;;2.60;85.40;;;;;;5072404;28;20044;-73
2021/11/29 03:36:32;;;;;;;2.50;0.60;;;2.60;85.40;;;;;;5090322;28;20104;-73
2021/11/29 03:38:59;;;;;;;2.42;0.68;;;2.60;85.40;;;;;;5072402;28;20431;-75
2021/11/29 03:41:26;;;;;;;3.50;1.63;;;2.70;85.50;;;;;;5073359;28;20406;-75
2021/11/29 03:43:52;;;;;;;3.85;0.65;;;2.60;85.50;;;;;;5091379;28;20020;-75
2021/11/29 03:46:19;;;;;;;1.27;0.60;;;2.60;85.50;;;;;;5090106;28;20039;-75
2021/11/29 03:48:45;;;;;;;5.07;0.88;;;2.70;85.50;;;;;;5090339;28;20097;-75
2021/11/29 03:51:11;;;;;;;5.45;1.45;;;2.70;85.40;;;;;;5087305;28;20051;-73
2021/11/29 03:53:37;;;;;;;1.48;0.63;;;2.70;85.30;;;;;;5072628;28;20060;-74
2021/11/29 03:56:03;;;;;;;1.13;0.80;;;2.60;85.30;;;;;;5072590;28;20047;-75
2021/11/29 03:58:29;;;;;;;2.60;0.70;;;2.60;85.40;;;;;;5090780;28;20387;-75
2021/11/29 04:00:55;;;;;;;5.38;0.90;;;2.60;85.40;;;;;;5090715;28;20029;-74
2021/11/29 04:03:20;;;;;;;2.97;0.65;;;2.60;85.40;;;;;;5073117;28;20035;-75
2021/11/29 04:05:47;;;;;;;2.10;0.50;;;2.60;85.20;;;;;;5090817;28;20031;-75
2021/11/29 04:08:12;;;;;;;0.80;0.73;;;2.60;85.20;;;;;;5090646;28;20031;-73
2021/11/29 04:10:38;;;;;;;1.88;0.80;;;2.60;85.30;;;;;;5059757;28;20032;-75
2021/11/29 04:13:04;;;;;;;3.13;0.70;;;2.60;85.30;;;;;;5091109;28;20036;-75
2021/11/29 04:15:30;;;;;;;1.20;0.50;;;2.60;85.30;;;;;;5066407;28;20525;-75
2021/11/29 04:17:56;;;;;;;2.47;0.75;;;2.60;85.40;;;;;;5052715;28;20025;-73
2021/11/29 04:20:21;;;;;;;1.85;0.73;;;2.60;85.50;;;;;;5050416;28;20040;-73
2021/11/29 04:22:48;;;;;;;1.92;0.60;;;2.60;86.20;;;;;;5050589;28;20075;-73
2021/11/29 04:25:17;;;;;;;1.52;0.77;;;2.50;85.60;;;;;;5064806;28;20040;-73
2021/11/29 04:27:44;;;;;;;1.42;0.77;;;2.60;85.70;;;;;;5055690;28;20107;-73
2021/11/29 04:30:17;;;;;;;2.95;0.80;;;2.60;85.60;;;;;;5067857;28;20483;-73
2021/11/29 04:32:44;;;;;;;4.13;0.90;;;2.60;85.60;;;;;;5068478;28;20086;-73
2021/11/29 04:35:11;;;;;;;3.50;1.00;;;2.60;85.60;;;;;;5069001;28;20070;-73
2021/11/29 04:37:37;;;;;;;4.80;0.80;;;2.60;85.80;;;;;;5048867;28;20063;-73
2021/11/29 04:40:04;;;;;;;2.55;1.48;;;2.60;85.70;;;;;;5081405;28;20364;-73
2021/11/29 04:42:29;;;;;;;4.72;1.00;;;2.60;85.70;;;;;;5050223;28;20047;-73
2021/11/29 04:44:55;;;;;;;3.88;1.00;;;2.60;86.20;;;;;;5050119;28;20025;-73
2021/11/29 04:47:21;;;;;;;2.22;1.00;;;2.60;85.60;;;;;;5049597;28;20407;-73
2021/11/29 04:49:47;;;;;;;4.28;1.08;;;2.60;85.60;;;;;;5049522;28;20036;-73
2021/11/29 04:52:13;;;;;;;1.55;0.80;;;2.60;85.50;;;;;;5033020;28;20555;-73
2021/11/29 04:54:38;;;;;;;4.88;1.13;;;2.60;85.50;;;;;;5049868;28;20090;-73
2021/11/29 04:57:04;;;;;;;2.63;1.20;;;2.60;85.60;;;;;;5044573;28;20021;-73
2021/11/29 04:59:30;;;;;;;4.20;1.38;;;2.60;85.60;;;;;;5042820;28;20414;-73
2021/11/29 05:01:56;;;;;;;3.38;1.05;;;2.60;85.70;;;;;;5048893;28;20036;-73
2021/11/29 05:04:22;;;;;;;5.22;2.28;;;2.60;85.70;;;;;;5076554;28;20376;-75
2021/11/29 05:06:47;;;;;;;2.58;1.20;;;2.60;85.80;;;;;;5070070;28;20044;-75
2021/11/29 05:09:13;;;;;;;5.95;1.25;;;2.60;85.80;;;;;;5058456;28;20433;-73
2021/11/29 05:11:39;;;;;;;4.78;1.20;;;2.60;85.80;;;;;;5049155;28;20051;-75
2021/11/29 05:14:05;;;;;;;3.45;1.20;;;2.60;85.80;;;;;;5061286;28;20043;-75
2021/11/29 05:16:32;;;;;;;5.78;1.35;;;2.60;85.80;;;;;;5089883;28;20036;-73
2021/11/29 05:18:58;;;;;;;3.13;1.05;;;2.60;85.80;;;;;;5071261;28;20035;-75
2021/11/29 05:21:25;;;;;;;3.30;0.90;;;2.60;85.90;;;;;;5090086;28;20028;-73
2021/11/29 05:23:51;;;;;;;4.18;1.20;;;2.60;85.80;;;;;;5067904;28;20117;-74
2021/11/29 05:26:21;;;;;;;5.75;1.27;;;2.60;85.70;;;;;;5069200;28;20074;-73
2021/11/29 05:28:47;;;;;;;3.33;1.35;;;2.60;85.70;;;;;;5071428;28;20043;-75
2021/11/29 05:31:13;;;;;;;1.85;1.17;;;2.60;85.60;;;;;;5038200;28;20040;-73
2021/11/29 05:33:39;;;;;;;2.47;0.95;;;2.60;85.60;;;;;;5089559;28;20036;-75
2021/11/29 05:36:05;;;;;;;4.05;1.00;;;2.60;85.60;;;;;;5075204;28;20033;-75
2021/11/29 05:38:31;;;;;;;8.00;1.67;;;2.60;85.50;;;;;;5084781;28;20039;-75
2021/11/29 05:40:56;;;;;;;3.20;1.10;;;2.70;85.60;;;;;;5071569;28;20043;-75
2021/11/29 05:43:22;;;;;;;4.50;1.50;;;2.60;85.50;;;;;;5089682;28;20024;-75
2021/11/29 05:45:48;;;;;;;3.38;1.23;;;2.70;85.50;;;;;;5071812;28;20131;-75
2021/11/29 05:48:13;;;;;;;5.32;1.33;;;2.70;85.50;;;;;;5071246;28;20059;-75
2021/11/29 05:50:39;;;;;;;2.88;1.45;;;2.70;85.50;;;;;;5089706;28;20036;-75
2021/11/29 05:53:05;;;;;;;2.08;1.20;;;2.70;85.40;;;;;;5090142;28;20036;-75
2021/11/29 05:55:31;;;;;;;6.07;1.42;;;2.70;85.40;;;;;;5092982;28;20032;-75
2021/11/29 05:57:57;;;;;;;1.83;1.30;;;2.60;85.30;;;;;;5075424;28;20580;-75
2021/11/29 06:00:23;;;;;;;5.38;1.65;;;2.70;85.40;;;;;;5092938;28;20039;-73
2021/11/29 06:02:49;;;;;;;5.22;1.30;;;2.60;85.30;;;;;;5075172;28;20024;-73
2021/11/29 06:05:16;;;;;;;4.88;1.23;;;2.70;85.30;;;;;;5092012;28;20028;-73
2021/11/29 06:07:42;;;;;;;4.40;1.33;;;2.70;85.40;;;;;;5093618;28;20088;-75
2021/11/29 06:10:09;;;;;;;2.55;1.27;;;2.70;85.40;;;;;;5091862;28;20028;-73
2021/11/29 06:12:36;;;;;;;5.75;1.40;;;2.70;85.40;;;;;;5058513;28;20435;-75
2021/11/29 06:15:02;;;;;;;3.15;1.25;;;2.70;85.50;;;;;;5092568;28;20109;-73
2021/11/29 06:17:28;;;;;;;1.98;1.00;;;2.70;85.40;;;;;;5092627;28;20379;-73
2021/11/29 06:19:54;;;;;;;4.18;1.30;;;2.70;85.30;;;;;;5092540;28;20028;-75
2021/11/29 06:22:19;;;;;;;4.07;1.42;;;2.70;85.30;;;;;;5074839;28;20028;-73
2021/11/29 06:24:45;;;;;;;4.10;1.30;;;2.60;85.30;;;;;;5074090;28;20036;-73
2021/11/29 06:27:12;;;;;;;4.47;1.20;;;2.70;85.40;;;;;;5073857;28;20020;-73
2021/11/29 06:29:38;;;;;;;5.00;1.45;;;2.70;85.40;;;;;;5092518;28;20035;-75
2021/11/29 06:32:04;;;;;;;8.35;1.60;;;2.70;85.40;;;;;;5074774;28;20463;-73
2021/11/29 06:34:30;;;;;;;6.32;1.70;;;2.70;85.50;;;;;;5074155;28;20131;-73
2021/11/29 06:36:56;;;;;;;2.65;1.77;;;2.70;85.50;;;;;;5057572;28;20518;-75
2021/11/29 06:39:22;;;;;;;3.95;1.40;;;2.70;85.40;;;;;;5057367;28;20047;-73
2021/11/29 06:41:48;;;;;;;8.20;1.67;;;2.70;85.50;;;;;;5092068;28;20032;-73
2021/11/29 06:44:15;;;;;;;5.90;2.50;;;2.70;85.40;;;;;;5092137;28;20423;-74
2021/11/29 06:46:41;;;;;;;2.92;1.30;;;2.70;85.40;;;;;;5092527;28;20024;-73
2021/11/29 06:49:07;;;;;;;5.88;1.80;;;2.70;85.50;;;;;;5091531;28;20036;-73
2021/11/29 06:51:34;;;;;;;4.43;1.65;;;2.60;85.50;;;;;;5073982;28;20047;-73
2021/11/29 06:54:00;;;;;;;8.80;1.67;;;2.60;85.60;;;;;;5081216;28;20065;-73
2021/11/29 06:56:27;;;;;;;6.18;1.63;;;2.70;85.80;;;;;;5071533;28;20107;-73
2021/11/29 06:58:52;;;;;;;6.68;1.92;;;2.70;86.40;;;;;;5087188;28;20089;-74
2021/11/29 07:01:18;;;;;;;7.35;1.58;;;2.70;85.80;;;;;;5074202;28;20036;-73
2021/11/29 07:03:45;;;;;;;5.28;1.85;;;2.80;85.90;;;;;;5091789;28;20031;-74
2021/11/29 07:06:11;;;;;;;4.97;1.58;;;2.80;85.90;;;;;;5091161;28;20059;-74
2021/11/29 07:08:37;;;;;;;5.72;1.50;;;2.80;86.00;;;;;;5088668;28;20444;-73
2021/11/29 07:11:03;;;;;;;5.20;1.30;;;2.90;86.10;;;;;;5053473;28;20041;-73
2021/11/29 07:13:29;;;;;;;4.03;1.50;;;2.80;86.00;;;;;;5087434;28;20317;-73
2021/11/29 07:15:55;;;;;;;4.22;2.67;;;2.90;86.10;;;;;;5090641;28;20491;-73
2021/11/29 07:18:21;;;;;;;7.93;3.08;;;2.90;86.20;;;;;;5090578;28;20031;-73
2021/11/29 07:20:48;;;;;;;3.35;1.42;;;2.90;86.20;;;;;;5090612;28;20054;-74
2021/11/29 07:23:14;;;;;;;6.28;1.52;;;2.90;86.20;;;;;;5092415;28;20028;-73
2021/11/29 07:25:39;;;;;;;4.93;1.70;;;3.00;86.30;;;;;;5091235;28;20143;-73
2021/11/29 07:28:05;;;;;;;8.10;1.65;;;3.00;86.30;;;;;;5071698;28;20115;-73
2021/11/29 07:30:31;;;;;;;5.90;1.50;;;3.00;86.30;;;;;;5056630;28;20071;-73
2021/11/29 07:32:57;;;;;;;6.03;1.75;;;3.00;86.30;;;;;;5091428;28;20559;-73
2021/11/29 07:35:27;;;;;;;5.90;1.40;;;3.10;86.30;;;;;;5090518;28;20048;-73
2021/11/29 07:37:53;;;;;;;5.18;1.67;;;3.10;86.30;;;;;;5090716;28;20024;-73
2021/11/29 07:40:20;;;;;;;4.30;1.45;;;3.10;86.40;;;;;;5069148;28;20465;-73
2021/11/29 07:42:45;;;;;;;5.80;1.55;;;3.10;86.40;;;;;;5073684;28;20628;-73
2021/11/29 07:45:12;;;;;;;5.72;1.60;;;3.10;86.40;;;;;;5072281;28;20097;-73
2021/11/29 07:47:43;;;;;;;3.55;1.45;;;3.20;86.50;;;;;;5088883;28;20044;-73
2021/11/29 07:50:11;;;;;;;6.40;1.48;;;3.20;86.50;;;;;;5108116;28;20035;-73
2021/11/29 07:52:37;;;;;;;4.65;1.25;;;3.20;86.60;;;;;;5093779;28;20480;-76
2021/11/29 07:55:07;;;;;;;5.88;1.50;;;3.20;86.70;;;;;;5061357;28;20032;-76
2021/11/29 07:57:34;;;;;;;3.85;1.35;;;3.20;86.80;;;;;;5086349;28;20471;-73
2021/11/29 08:00:05;;;;;;;2.33;1.15;;;3.20;86.80;;;;;;5089340;28;20026;-75
2021/11/29 08:02:31;;;;;;;3.78;1.38;;;3.30;87.00;;;;;;5088338;28;20031;-73
2021/11/29 08:04:57;;;;;;;5.53;1.63;;;3.30;86.90;;;;;;5081563;28;20036;-76
2021/11/29 08:07:23;;;;;;;5.50;2.00;;;3.40;86.90;;;;;;5092034;28;20736;-73
2021/11/29 08:09:49;;;;;;;8.45;2.45;;;3.40;86.80;;;;;;5090853;28;20035;-73
2021/11/29 08:12:14;;;;;;;3.80;1.40;;;3.40;86.80;;;;;;5089885;28;20391;-73
2021/11/29 08:14:40;;;;;;;7.00;2.35;;;3.40;86.90;;;;;;5066871;28;20052;-73
2021/11/29 08:17:06;;;;;;;6.57;1.60;;;3.40;86.90;;;;;;5061136;28;20040;-74
2021/11/29 08:19:32;;;;;;;4.20;1.50;;;3.50;87.00;;;;;;5061742;28;20043;-76
2021/11/29 08:21:58;;;;;;;6.78;1.42;;;3.50;87.00;;;;;;5065221;28;20037;-74
2021/11/29 08:24:24;;;;;;;5.60;1.55;;;3.40;87.50;;;;;;5065429;28;20404;-77
2021/11/29 08:26:50;;;;;;;5.45;1.70;;;3.40;87.00;;;;;;5072327;28;20174;-76
2021/11/29 08:29:15;;;;;;;2.30;1.45;;;3.40;87.10;;;;;;5040232;28;20127;-72
2021/11/29 08:31:42;;;;;;;4.35;2.15;;;3.50;87.10;;;;;;5068036;28;20491;-73
2021/11/29 08:34:07;;;;;;;4.47;1.50;;;3.50;87.10;;;;;;5059086;28;20051;-70
2021/11/29 08:36:35;;;;;;;4.70;1.60;;;3.50;87.20;;;;;;5050973;28;20024;-70
2021/11/29 08:39:03;;;;;;;3.22;1.30;;;3.50;87.40;;;;;;5044234;28;20025;-70
2021/11/29 08:41:30;;;;;;;4.68;1.50;;;3.50;87.50;;;;;;5059166;28;20120;-70
2021/11/29 08:43:56;;;;;;;6.55;2.28;;;3.50;87.50;;;;;;5067115;28;20029;-73
2021/11/29 08:46:23;;;;;;;8.15;1.65;;;3.60;87.50;;;;;;5065813;28;20044;-74
2021/11/29 08:48:49;;;;;;;5.38;1.20;;;3.60;87.50;;;;;;5055660;28;20028;-73
2021/11/29 08:51:16;;;;;;;3.70;1.35;;;3.60;87.50;;;;;;5069151;28;20161;-73
2021/11/29 08:53:43;;;;;;;5.93;1.50;;;3.60;87.50;;;;;;5067515;28;20491;-75
2021/11/29 08:56:10;;;;;;;5.53;1.30;;;3.70;87.50;;;;;;5034034;28;20119;-75
2021/11/29 08:58:36;;;;;;;4.40;1.30;;;3.70;87.50;;;;;;5057646;28;20083;-72
2021/11/29 09:01:04;;;;;;;7.00;1.38;;;3.70;87.60;;;;;;5063380;28;20483;-72
2021/11/29 09:03:30;;;;;;;4.38;1.42;;;3.70;87.60;;;;;;5064413;28;20032;-72
2021/11/29 09:05:57;;;;;;;5.35;1.40;;;3.70;87.70;;;;;;5067976;28;20044;-71
2021/11/29 09:08:27;;;;;;;5.85;1.48;;;3.70;87.70;;;;;;5066636;28;20043;-71
2021/11/29 09:10:53;;;;;;;4.07;1.40;;;3.70;87.70;;;;;;5063484;28;20032;-72
2021/11/29 09:13:19;;;;;;;7.07;1.55;;;3.70;87.80;;;;;;5059634;28;20044;-70
2021/11/29 09:15:46;;;;;;;3.30;1.30;;;3.70;87.80;;;;;;5084488;28;20048;-73
2021/11/29 09:18:14;;;;;;;4.15;1.30;;;3.70;88.00;;;;;;5070565;28;20119;-73
2021/11/29 09:20:41;;;;;;;7.63;1.50;;;3.80;88.10;;;;;;5087712;28;20055;-71
2021/11/29 09:23:08;;;;;;;3.70;1.30;;;3.90;88.40;;;;;;5089295;28;20495;-73
2021/11/29 09:25:41;;;;;;;4.50;1.00;;;4.00;88.40;;;;;;5088498;28;20074;-73
2021/11/29 09:28:08;;;;;;;2.58;1.00;;;4.10;88.30;;;;;;5074901;28;20131;-69
2021/11/29 09:30:34;;;;;;;7.30;1.40;;;4.20;88.20;;;;;;5091807;28;20044;-70
2021/11/29 09:33:00;;;;;;;8.10;1.67;;;4.30;88.40;;;;;;5075021;28;20552;-71
2021/11/29 09:35:25;;;;;;;3.88;1.33;;;4.30;88.30;;;;;;5074312;28;20058;-70
2021/11/29 09:37:51;;;;;;;4.47;1.08;;;4.40;88.40;;;;;;5069228;28;20044;-72
2021/11/29 09:40:24;;;;;;;4.57;1.05;;;4.50;88.40;;;;;;5072622;28;20517;-72
2021/11/29 09:42:50;;;;;;;;;;;4.60;88.40;;;;;;5090767;28;20496;-72
2021/11/29 09:45:17;;;;;;;3.38;1.20;;;4.60;88.10;;;;;;5086599;28;19995;-73
2021/11/29 09:47:43;;;;;;;3.92;1.40;;;4.60;88.20;;;;;;5090860;28;20032;-72
2021/11/29 09:50:10;;;;;;;4.22;1.30;;;4.70;88.50;;;;;;5092561;28;20036;-74
2021/11/29 09:52:36;;;;;;;3.88;1.30;;;4.70;88.60;;;;;;5092705;28;20035;-74
2021/11/29 09:55:04;;;;;;;3.35;1.15;;;4.70;88.60;;;;;;5074183;28;20035;-69
2021/11/29 09:57:30;;;;;;;4.25;1.20;;;4.70;88.50;;;;;;5093629;28;20038;-70
2021/11/29 09:59:56;;;;;;;3.55;1.20;;;4.70;88.50;;;;;;5092812;28;20032;-70
2021/11/29 10:02:21;;;;;;;5.80;1.98;;;4.70;88.50;;;;;;5076851;28;20037;-71
2021/11/29 10:04:49;;;;;;;7.05;2.08;;;4.70;88.60;;;;;;5070821;28;20033;-71
2021/11/29 10:07:45;;;;;;;3.00;1.10;;;4.70;88.70;;;;;;5074994;28;20028;-71
2021/11/29 10:10:14;;;;;;;2.85;1.23;;;4.80;88.70;;;;;;5074150;28;20024;-71
2021/11/29 10:12:39;;;;;;;3.25;1.10;;;4.80;88.70;;;;;;5093334;28;20446;-71
2021/11/29 10:15:24;;;;;;;2.65;1.10;;;4.80;88.70;;;;;;5092660;28;20097;-73
2021/11/29 10:17:59;;;;;;;3.70;1.20;;;4.80;88.70;;;;;;5074985;28;20039;-71
2021/11/29 10:20:27;;;;;;;5.28;1.27;;;4.80;88.70;;;;;;5092950;28;20099;-71
2021/11/29 10:23:13;;;;;;;5.47;1.15;;;4.90;88.60;;;;;;5093019;28;20055;-73
2021/11/29 10:25:45;;;;;;;6.90;1.45;;;4.90;88.60;;;;;;5092509;28;20521;-74
2021/11/29 10:28:30;;;;;;;3.10;1.20;;;5.00;88.80;;;;;;5074307;28;20040;-71
2021/11/29 10:31:13;;;;;;;6.47;1.20;;;5.00;88.70;;;;;;5073821;28;20286;-70
2021/11/29 10:34:06;;;;;;;5.65;1.42;;;5.10;88.70;;;;;;5092049;28;20024;-70
2021/11/29 10:36:42;;;;;;;6.07;0.98;;;5.10;88.60;;;;;;5085946;28;20447;-70
2021/11/29 10:39:20;;;;;;;3.88;1.27;;;5.20;88.50;;;;;;5091503;28;20103;-72
2021/11/29 10:41:49;;;;;;;3.47;1.00;;;5.20;88.40;;;;;;5090423;28;20049;-71
2021/11/29 10:44:19;;;;;;;2.88;1.00;;;5.30;88.30;;;;;;5074679;28;20020;-71
2021/11/29 10:46:53;;;;;;;3.97;1.00;;;5.30;88.20;;;;;;5081296;28;20040;-73
2021/11/29 10:49:23;;;;;;;5.72;1.40;;;5.40;88.20;;;;;;5087682;28;20051;-71
2021/11/29 10:51:51;;;;;;;4.40;1.48;;;5.50;87.90;;;;;;5077620;28;20427;-72
2021/11/29 10:54:22;;;;;;;2.40;1.17;;;5.50;87.90;;;;;;5091868;28;20032;-72
2021/11/29 10:56:49;;;;;;;4.80;1.70;;;5.60;88.20;;;;;;5098256;28;20024;-72
2021/11/29 10:59:20;;;;;;;3.63;1.23;;;6.40;88.80;;;;;;5090850;28;20012;-71
2021/11/29 11:01:54;;;;;;;3.55;1.05;;;8.30;84.70;;;;;;5090106;28;20024;-74
2021/11/29 11:04:28;;;;;;;3.28;0.85;;;10.60;78.50;;;;;;5096443;28;20096;-74
2021/11/29 11:07:00;;;;;;;1.60;0.95;;;12.30;73.00;;;;;;5107442;28;20032;-72
2021/11/29 11:09:28;;;;;;;3.38;1.00;;;13.80;67.90;;;;;;5096175;28;20026;-73
2021/11/29 11:12:00;;;;;;;2.60;0.80;;;14.90;65.20;;;;;;5087111;28;20036;-73
2021/11/29 11:14:30;;;;;;;2.45;0.90;;;15.80;63.40;;;;;;5090494;28;20119;-73
2021/11/29 11:17:02;;;;;;;2.15;0.93;;;16.50;61.80;;;;;;5072279;28;20028;-73
2021/11/29 11:19:46;;;;;;;2.22;0.75;;;17.00;59.20;;;;;;5090736;28;20059;-73
2021/11/29 11:22:19;;;;;;;1.73;1.02;;;17.40;58.30;;;;;;5089069;28;20035;-73
2021/11/29 11:24:50;;;;;;;3.08;0.75;;;17.90;54.90;;;;;;5090611;28;20026;-73
2021/11/29 11:27:17;;;;;;;3.92;1.00;;;18.20;54.20;;;;;;5093317;28;20049;-73
2021/11/29 11:30:05;;;;;;;1.92;0.90;;;18.60;50.90;;;;;;5054166;28;20055;-72
2021/11/29 11:32:42;;;;;;;1.45;0.80;;;17.90;52.30;;;;;;5095276;28;20524;-72
2021/11/29 11:35:18;;;;;;;2.35;0.70;;;17.60;52.80;;;;;;5075922;28;20032;-73
2021/11/29 11:37:50;;;;;;;2.28;0.90;;;17.20;53.40;;;;;;5077550;28;20024;-72
2021/11/29 11:40:25;;;;;;;0.85;0.60;;;16.70;53.60;;;;;;5094635;28;20051;-70
2021/11/29 11:42:52;;;;;;;4.25;1.00;;;16.80;52.90;;;;;;5103506;28;20028;-73
2021/11/29 11:45:28;;;;;;;2.65;0.98;;;16.60;52.90;;;;;;5083487;28;20500;-71
2021/11/29 11:47:59;;;;;;;2.08;0.90;;;15.60;54.50;;;;;;5087219;28;20032;-71
2021/11/29 11:50:37;;;;;;;2.55;0.90;;;14.40;55.70;;;;;;5092434;28;20038;-70
2021/11/29 11:53:05;;;;;;;2.20;1.00;;;13.20;58.40;;;;;;5092496;28;20479;-71
2021/11/29 11:55:35;;;;;;;2.65;1.35;;;12.30;60.80;;;;;;5087675;28;20115;-73
2021/11/29 11:58:05;;;;;;;2.85;1.25;;;11.50;62.80;;;;;;5099623;28;20142;-74
2021/11/29 12:00:33;;;;;;;1.67;1.30;;;10.90;64.40;;;;;;5090204;28;20084;-72
2021/11/29 12:03:10;;;;;;;2.72;1.20;;;10.70;66.10;;;;;;5089803;28;20024;-74
2021/11/29 12:05:58;;;;;;;2.83;1.10;;;11.00;66.70;;;;;;5089660;28;20516;-75
2021/11/29 12:08:45;;;;;;;5.53;1.25;;;12.10;64.40;;;;;;5076174;28;20135;-75
2021/11/29 12:11:26;;;;;;;3.15;1.17;;;13.00;61.70;;;;;;5069782;28;20398;-75
2021/11/29 12:14:04;;;;;;;3.08;1.10;;;13.50;59.50;;;;;;5071687;28;20482;-74
2021/11/29 12:16:33;;;;;;;2.35;1.10;;;13.40;61.00;;;;;;5105011;28;20432;-73
2021/11/29 12:18:59;;;;;;;2.38;1.20;;;14.20;59.60;;;;;;5087033;28;20391;-73
2021/11/29 12:21:37;;;;;;;1.00;0.88;;;14.70;57.60;;;;;;5087432;28;20012;-73
2021/11/29 12:24:14;;;;;;;2.05;1.00;;;15.50;55.70;;;;;;5092547;28;20020;-73
2021/11/29 12:26:45;;;;;;;3.42;1.08;;;16.10;54.50;;;;;;5086659;28;20056;-73
2021/11/29 12:29:20;;;;;;;2.88;1.00;;;16.40;53.50;;;;;;5089013;28;20024;-65
2021/11/29 12:31:49;;;;;;;2.00;0.90;;;17.00;53.00;;;;;;5088281;28;20024;-70
2021/11/29 12:34:35;;;;;;;3.25;1.10;;;17.70;50.70;;;;;;5070893;28;20433;-69
2021/11/29 12:37:01;;;;;;;1.35;0.80;;;17.60;48.90;;;;;;5090578;28;20448;-70
2021/11/29 12:39:45;;;;;;;2.78;1.23;;;17.20;50.10;;;;;;5093675;28;20031;-70
2021/11/29 12:42:19;;;;;;;1.85;1.23;;;16.90;49.80;;;;;;5088948;28;20024;-71
2021/11/29 12:44:58;;;;;;;3.92;1.20;;;16.70;49.90;;;;;;5088868;28;20040;-71
2021/11/29 12:47:33;;;;;;;4.18;1.20;;;16.30;51.30;;;;;;5088294;28;20131;-73
2021/11/29 12:50:01;;;;;;;2.97;1.20;;;15.70;51.90;;;;;;5083665;28;20075;-71
2021/11/29 12:52:27;;;;;;;2.72;1.27;;;15.40;53.00;;;;;;5082153;28;20093;-71
2021/11/29 12:54:54;;;;;;;2.05;1.00;;;15.10;53.80;;;;;;5070164;28;20032;-71
2021/11/29 12:57:37;;;;;;;3.22;1.30;;;15.00;54.50;;;;;;5078778;28;20047;-73
2021/11/29 13:00:22;;;;;;;2.08;1.02;;;15.20;54.70;;;;;;5069913;28;20501;-69